sensor_id;sensor_type;location;lat;lon;timestamp;temperature;humidity
38550;DHT22;24322;52.004;5.948;2022-09-12T00:01:14;13.40;99.90
38550;DHT22;24322;52.004;5.948;2022-09-12T00:03:40;13.40;99.90
38550;DHT22;24322;52.004;5.948;2022-09-12T00:06:08;13.40;99.90
38550;DHT22;24322;52.004;5.948;2022-09-12T00:08:35;13.40;99.90
38550;DHT22;24322;52.004;5.948;2022-09-12T00:11:05;13.40;99.90
38550;DHT22;24322;52.004;5.948;2022-09-12T00:13:31;13.40;99.90
38550;DHT22;24322;52.004;5.948;2022-09-12T00:15:57;13.30;99.90
38550;DHT22;24322;52.004;5.948;2022-09-12T00:18:23;13.30;99.90
38550;DHT22;24322;52.004;5.948;2022-09-12T00:20:48;13.30;99.90
38550;DHT22;24322;52.004;5.948;2022-09-12T00:23:14;13.30;99.90
38550;DHT22;24322;52.004;5.948;2022-09-12T00:25:47;13.30;99.90
38550;DHT22;24322;52.004;5.948;2022-09-12T00:28:15;13.30;99.90
38550;DHT22;24322;52.004;5.948;2022-09-12T00:30:46;13.30;99.90
38550;DHT22;24322;52.004;5.948;2022-09-12T00:33:13;13.30;99.90
38550;DHT22;24322;52.004;5.948;2022-09-12T00:35:47;13.30;99.90
38550;DHT22;24322;52.004;5.948;2022-09-12T00:38:15;13.20;99.90
38550;DHT22;24322;52.004;5.948;2022-09-12T00:40:41;13.20;99.90
38550;DHT22;24322;52.004;5.948;2022-09-12T00:43:37;13.20;99.90
38550;DHT22;24322;52.004;5.948;2022-09-12T00:46:11;13.20;99.90
38550;DHT22;24322;52.004;5.948;2022-09-12T00:48:45;13.20;99.90
38550;DHT22;24322;52.004;5.948;2022-09-12T00:51:12;13.10;99.90
38550;DHT22;24322;52.004;5.948;2022-09-12T00:53:40;13.10;99.90
38550;DHT22;24322;52.004;5.948;2022-09-12T00:56:08;13.10;99.90
38550;DHT22;24322;52.004;5.948;2022-09-12T00:58:49;13.10;99.90
38550;DHT22;24322;52.004;5.948;2022-09-12T01:01:15;13.10;99.90
38550;DHT22;24322;52.004;5.948;2022-09-12T01:03:41;13.10;99.90
38550;DHT22;24322;52.004;5.948;2022-09-12T01:06:15;13.10;99.90
38550;DHT22;24322;52.004;5.948;2022-09-12T01:08:43;13.10;99.90
38550;DHT22;24322;52.004;5.948;2022-09-12T01:11:09;13.00;99.90
38550;DHT22;24322;52.004;5.948;2022-09-12T01:13:36;13.00;99.90
38550;DHT22;24322;52.004;5.948;2022-09-12T01:16:03;13.00;99.90
38550;DHT22;24322;52.004;5.948;2022-09-12T01:18:44;12.90;99.90
38550;DHT22;24322;52.004;5.948;2022-09-12T01:21:43;12.90;99.90
38550;DHT22;24322;52.004;5.948;2022-09-12T01:24:26;12.90;99.90
38550;DHT22;24322;52.004;5.948;2022-09-12T01:38:46;12.70;99.90
38550;DHT22;24322;52.004;5.948;2022-09-12T01:41:29;12.70;99.90
38550;DHT22;24322;52.004;5.948;2022-09-12T01:44:27;12.70;99.90
38550;DHT22;24322;52.004;5.948;2022-09-12T01:47:12;12.70;99.90
38550;DHT22;24322;52.004;5.948;2022-09-12T01:52:21;12.70;99.90
38550;DHT22;24322;52.004;5.948;2022-09-12T01:55:01;12.70;99.90
38550;DHT22;24322;52.004;5.948;2022-09-12T01:57:41;12.70;99.90
38550;DHT22;24322;52.004;5.948;2022-09-12T02:00:09;12.70;99.90
38550;DHT22;24322;52.004;5.948;2022-09-12T02:02:39;12.60;99.90
38550;DHT22;24322;52.004;5.948;2022-09-12T02:05:21;12.60;99.90
38550;DHT22;24322;52.004;5.948;2022-09-12T02:08:11;12.60;99.90
38550;DHT22;24322;52.004;5.948;2022-09-12T02:10:42;12.60;99.90
38550;DHT22;24322;52.004;5.948;2022-09-12T02:13:12;12.60;99.90
38550;DHT22;24322;52.004;5.948;2022-09-12T02:15:44;12.60;99.90
38550;DHT22;24322;52.004;5.948;2022-09-12T02:18:14;12.60;99.90
38550;DHT22;24322;52.004;5.948;2022-09-12T02:20:42;12.60;99.90
38550;DHT22;24322;52.004;5.948;2022-09-12T02:23:12;12.60;99.90
38550;DHT22;24322;52.004;5.948;2022-09-12T02:25:41;12.50;99.90
38550;DHT22;24322;52.004;5.948;2022-09-12T02:28:15;12.50;99.90
38550;DHT22;24322;52.004;5.948;2022-09-12T02:31:11;12.60;99.90
38550;DHT22;24322;52.004;5.948;2022-09-12T02:33:47;12.60;99.90
38550;DHT22;24322;52.004;5.948;2022-09-12T02:36:16;12.60;99.90
38550;DHT22;24322;52.004;5.948;2022-09-12T02:38:47;12.60;99.90
38550;DHT22;24322;52.004;5.948;2022-09-12T02:41:16;12.50;99.90
38550;DHT22;24322;52.004;5.948;2022-09-12T02:43:44;12.50;99.90
38550;DHT22;24322;52.004;5.948;2022-09-12T02:46:23;12.60;99.90
38550;DHT22;24322;52.004;5.948;2022-09-12T02:48:51;12.50;99.90
38550;DHT22;24322;52.004;5.948;2022-09-12T02:51:17;12.60;99.90
38550;DHT22;24322;52.004;5.948;2022-09-12T02:53:43;12.50;99.90
38550;DHT22;24322;52.004;5.948;2022-09-12T02:56:13;12.50;99.90
38550;DHT22;24322;52.004;5.948;2022-09-12T02:58:41;12.50;99.90
38550;DHT22;24322;52.004;5.948;2022-09-12T03:01:48;12.50;99.90
38550;DHT22;24322;52.004;5.948;2022-09-12T03:10:06;12.50;99.90
38550;DHT22;24322;52.004;5.948;2022-09-12T03:15:11;12.40;99.90
38550;DHT22;24322;52.004;5.948;2022-09-12T03:17:46;12.40;99.90
38550;DHT22;24322;52.004;5.948;2022-09-12T03:23:07;12.30;99.90
38550;DHT22;24322;52.004;5.948;2022-09-12T03:25:37;12.40;99.90
38550;DHT22;24322;52.004;5.948;2022-09-12T03:28:11;12.40;99.90
38550;DHT22;24322;52.004;5.948;2022-09-12T03:30:40;12.40;99.90
38550;DHT22;24322;52.004;5.948;2022-09-12T03:33:10;12.30;99.90
38550;DHT22;24322;52.004;5.948;2022-09-12T03:35:36;12.40;99.90
38550;DHT22;24322;52.004;5.948;2022-09-12T03:38:02;12.30;99.90
38550;DHT22;24322;52.004;5.948;2022-09-12T03:40:27;12.30;99.90
38550;DHT22;24322;52.004;5.948;2022-09-12T03:42:53;12.40;99.90
38550;DHT22;24322;52.004;5.948;2022-09-12T03:45:19;12.40;99.90
38550;DHT22;24322;52.004;5.948;2022-09-12T03:47:44;12.40;99.90
38550;DHT22;24322;52.004;5.948;2022-09-12T03:50:10;12.40;99.90
38550;DHT22;24322;52.004;5.948;2022-09-12T03:52:35;12.40;99.90
38550;DHT22;24322;52.004;5.948;2022-09-12T03:55:01;12.40;99.90
38550;DHT22;24322;52.004;5.948;2022-09-12T03:57:27;12.40;99.90
38550;DHT22;24322;52.004;5.948;2022-09-12T03:59:52;12.40;99.90
38550;DHT22;24322;52.004;5.948;2022-09-12T04:02:18;12.40;99.90
38550;DHT22;24322;52.004;5.948;2022-09-12T04:04:44;12.40;99.90
38550;DHT22;24322;52.004;5.948;2022-09-12T04:07:14;12.40;99.90
38550;DHT22;24322;52.004;5.948;2022-09-12T04:09:40;12.40;99.90
38550;DHT22;24322;52.004;5.948;2022-09-12T04:12:06;12.40;99.90
38550;DHT22;24322;52.004;5.948;2022-09-12T04:14:32;12.40;99.90
38550;DHT22;24322;52.004;5.948;2022-09-12T04:16:57;12.40;99.90
38550;DHT22;24322;52.004;5.948;2022-09-12T04:19:25;12.40;99.90
38550;DHT22;24322;52.004;5.948;2022-09-12T04:21:50;12.40;99.90
38550;DHT22;24322;52.004;5.948;2022-09-12T04:24:16;12.40;99.90
38550;DHT22;24322;52.004;5.948;2022-09-12T04:26:42;12.50;99.90
38550;DHT22;24322;52.004;5.948;2022-09-12T04:29:12;12.50;99.90
38550;DHT22;24322;52.004;5.948;2022-09-12T04:31:39;12.40;99.90
38550;DHT22;24322;52.004;5.948;2022-09-12T04:34:05;12.50;99.90
38550;DHT22;24322;52.004;5.948;2022-09-12T04:36:31;12.50;99.90
38550;DHT22;24322;52.004;5.948;2022-09-12T04:38:59;12.50;99.90
38550;DHT22;24322;52.004;5.948;2022-09-12T04:41:28;12.50;99.90
38550;DHT22;24322;52.004;5.948;2022-09-12T04:43:56;12.50;99.90
38550;DHT22;24322;52.004;5.948;2022-09-12T04:46:30;12.60;99.90
38550;DHT22;24322;52.004;5.948;2022-09-12T04:48:57;12.60;99.90
38550;DHT22;24322;52.004;5.948;2022-09-12T04:51:27;12.60;99.90
38550;DHT22;24322;52.004;5.948;2022-09-12T04:53:55;12.60;99.90
38550;DHT22;24322;52.004;5.948;2022-09-12T04:56:21;12.60;99.90
38550;DHT22;24322;52.004;5.948;2022-09-12T04:58:47;12.70;99.90
38550;DHT22;24322;52.004;5.948;2022-09-12T05:01:19;12.70;99.90
38550;DHT22;24322;52.004;5.948;2022-09-12T05:03:46;12.70;99.90
38550;DHT22;24322;52.004;5.948;2022-09-12T05:06:24;12.70;99.90
38550;DHT22;24322;52.004;5.948;2022-09-12T05:08:51;12.80;99.90
38550;DHT22;24322;52.004;5.948;2022-09-12T05:11:20;12.80;99.90
38550;DHT22;24322;52.004;5.948;2022-09-12T05:13:47;12.80;99.90
38550;DHT22;24322;52.004;5.948;2022-09-12T05:16:14;12.80;99.90
38550;DHT22;24322;52.004;5.948;2022-09-12T05:18:41;12.90;99.90
38550;DHT22;24322;52.004;5.948;2022-09-12T05:21:10;12.90;99.90
38550;DHT22;24322;52.004;5.948;2022-09-12T05:23:36;12.90;99.90
38550;DHT22;24322;52.004;5.948;2022-09-12T05:26:02;12.90;99.90
38550;DHT22;24322;52.004;5.948;2022-09-12T05:28:30;12.90;99.90
38550;DHT22;24322;52.004;5.948;2022-09-12T05:31:41;12.90;99.90
38550;DHT22;24322;52.004;5.948;2022-09-12T05:33:50;13.00;99.90
38550;DHT22;24322;52.004;5.948;2022-09-12T05:36:20;13.10;99.90
38550;DHT22;24322;52.004;5.948;2022-09-12T05:38:47;13.10;99.90
38550;DHT22;24322;52.004;5.948;2022-09-12T05:41:24;13.20;99.90
38550;DHT22;24322;52.004;5.948;2022-09-12T05:43:54;13.20;99.90
38550;DHT22;24322;52.004;5.948;2022-09-12T05:46:22;13.30;99.90
38550;DHT22;24322;52.004;5.948;2022-09-12T05:48:49;13.30;99.90
38550;DHT22;24322;52.004;5.948;2022-09-12T05:51:17;13.40;99.90
38550;DHT22;24322;52.004;5.948;2022-09-12T05:53:46;13.40;99.90
38550;DHT22;24322;52.004;5.948;2022-09-12T05:56:18;13.50;99.90
38550;DHT22;24322;52.004;5.948;2022-09-12T05:58:52;13.50;99.90
38550;DHT22;24322;52.004;5.948;2022-09-12T06:01:19;13.50;99.90
38550;DHT22;24322;52.004;5.948;2022-09-12T06:03:46;13.60;99.90
38550;DHT22;24322;52.004;5.948;2022-09-12T06:06:13;13.60;99.90
38550;DHT22;24322;52.004;5.948;2022-09-12T06:08:41;13.70;99.90
38550;DHT22;24322;52.004;5.948;2022-09-12T06:11:08;13.80;99.90
38550;DHT22;24322;52.004;5.948;2022-09-12T06:13:37;13.80;99.90
38550;DHT22;24322;52.004;5.948;2022-09-12T06:16:14;13.90;99.90
38550;DHT22;24322;52.004;5.948;2022-09-12T06:18:40;13.90;99.90
38550;DHT22;24322;52.004;5.948;2022-09-12T06:21:09;14.00;99.90
38550;DHT22;24322;52.004;5.948;2022-09-12T06:23:36;14.10;99.90
38550;DHT22;24322;52.004;5.948;2022-09-12T06:26:03;14.20;99.90
38550;DHT22;24322;52.004;5.948;2022-09-12T06:28:29;14.30;99.90
38550;DHT22;24322;52.004;5.948;2022-09-12T06:31:03;14.30;99.90
38550;DHT22;24322;52.004;5.948;2022-09-12T06:33:30;14.40;99.90
38550;DHT22;24322;52.004;5.948;2022-09-12T06:36:02;14.50;99.90
38550;DHT22;24322;52.004;5.948;2022-09-12T06:38:29;14.60;99.90
38550;DHT22;24322;52.004;5.948;2022-09-12T06:40:54;14.60;99.90
38550;DHT22;24322;52.004;5.948;2022-09-12T06:43:21;14.70;99.90
38550;DHT22;24322;52.004;5.948;2022-09-12T06:45:48;14.80;99.90
38550;DHT22;24322;52.004;5.948;2022-09-12T06:48:13;14.80;99.90
38550;DHT22;24322;52.004;5.948;2022-09-12T06:50:39;14.90;99.90
38550;DHT22;24322;52.004;5.948;2022-09-12T06:53:04;14.90;99.90
38550;DHT22;24322;52.004;5.948;2022-09-12T06:55:30;14.90;99.90
38550;DHT22;24322;52.004;5.948;2022-09-12T06:57:56;14.90;99.90
38550;DHT22;24322;52.004;5.948;2022-09-12T07:00:22;14.90;99.90
38550;DHT22;24322;52.004;5.948;2022-09-12T07:02:47;14.90;99.90
38550;DHT22;24322;52.004;5.948;2022-09-12T07:05:13;15.00;99.90
38550;DHT22;24322;52.004;5.948;2022-09-12T07:07:39;15.00;99.90
38550;DHT22;24322;52.004;5.948;2022-09-12T07:10:05;15.10;99.90
38550;DHT22;24322;52.004;5.948;2022-09-12T07:12:31;15.20;99.90
38550;DHT22;24322;52.004;5.948;2022-09-12T07:14:56;15.30;99.90
38550;DHT22;24322;52.004;5.948;2022-09-12T07:17:22;15.40;99.90
38550;DHT22;24322;52.004;5.948;2022-09-12T07:19:48;15.60;99.90
38550;DHT22;24322;52.004;5.948;2022-09-12T07:22:13;15.80;99.90
38550;DHT22;24322;52.004;5.948;2022-09-12T07:24:39;15.90;99.90
38550;DHT22;24322;52.004;5.948;2022-09-12T07:27:05;16.00;99.90
38550;DHT22;24322;52.004;5.948;2022-09-12T07:29:31;16.10;99.90
38550;DHT22;24322;52.004;5.948;2022-09-12T07:31:56;16.20;99.90
38550;DHT22;24322;52.004;5.948;2022-09-12T07:34:22;16.20;99.90
38550;DHT22;24322;52.004;5.948;2022-09-12T07:36:48;16.30;99.90
38550;DHT22;24322;52.004;5.948;2022-09-12T07:39:13;16.30;99.90
38550;DHT22;24322;52.004;5.948;2022-09-12T07:41:39;16.40;99.90
38550;DHT22;24322;52.004;5.948;2022-09-12T07:44:05;16.40;99.90
38550;DHT22;24322;52.004;5.948;2022-09-12T07:46:31;16.50;99.90
38550;DHT22;24322;52.004;5.948;2022-09-12T07:48:58;16.70;99.90
38550;DHT22;24322;52.004;5.948;2022-09-12T07:51:26;16.80;99.90
38550;DHT22;24322;52.004;5.948;2022-09-12T07:53:52;16.90;99.90
38550;DHT22;24322;52.004;5.948;2022-09-12T07:56:18;17.00;99.90
38550;DHT22;24322;52.004;5.948;2022-09-12T07:58:44;17.10;99.90
38550;DHT22;24322;52.004;5.948;2022-09-12T08:03:41;17.30;99.90
38550;DHT22;24322;52.004;5.948;2022-09-12T08:06:11;17.30;99.90
38550;DHT22;24322;52.004;5.948;2022-09-12T08:08:38;17.40;99.90
38550;DHT22;24322;52.004;5.948;2022-09-12T08:11:07;17.60;99.90
38550;DHT22;24322;52.004;5.948;2022-09-12T08:13:34;18.00;99.90
38550;DHT22;24322;52.004;5.948;2022-09-12T08:16:02;18.20;99.90
38550;DHT22;24322;52.004;5.948;2022-09-12T08:18:29;18.50;99.90
38550;DHT22;24322;52.004;5.948;2022-09-12T08:21:02;18.70;99.90
38550;DHT22;24322;52.004;5.948;2022-09-12T08:23:29;19.10;99.90
38550;DHT22;24322;52.004;5.948;2022-09-12T08:26:05;19.40;99.90
38550;DHT22;24322;52.004;5.948;2022-09-12T08:28:32;19.80;99.90
38550;DHT22;24322;52.004;5.948;2022-09-12T08:31:06;20.40;99.90
38550;DHT22;24322;52.004;5.948;2022-09-12T08:33:33;21.10;99.90
38550;DHT22;24322;52.004;5.948;2022-09-12T08:36:16;21.50;99.90
38550;DHT22;24322;52.004;5.948;2022-09-12T08:38:46;22.10;99.90
38550;DHT22;24322;52.004;5.948;2022-09-12T08:49:41;24.10;98.00
38550;DHT22;24322;52.004;5.948;2022-09-12T08:52:15;24.80;97.60
38550;DHT22;24322;52.004;5.948;2022-09-12T08:54:42;25.50;94.90
38550;DHT22;24322;52.004;5.948;2022-09-12T08:57:10;25.90;94.60
38550;DHT22;24322;52.004;5.948;2022-09-12T08:59:39;26.20;94.20
38550;DHT22;24322;52.004;5.948;2022-09-12T09:16:29;28.30;81.20
38550;DHT22;24322;52.004;5.948;2022-09-12T09:18:58;28.20;79.80
38550;DHT22;24322;52.004;5.948;2022-09-12T09:21:53;28.40;80.60
38550;DHT22;24322;52.004;5.948;2022-09-12T09:24:24;28.50;77.60
38550;DHT22;24322;52.004;5.948;2022-09-12T09:27:05;28.50;79.10
38550;DHT22;24322;52.004;5.948;2022-09-12T09:29:46;28.80;79.40
38550;DHT22;24322;52.004;5.948;2022-09-12T09:32:22;28.80;75.00
38550;DHT22;24322;52.004;5.948;2022-09-12T09:34:49;28.90;76.90
38550;DHT22;24322;52.004;5.948;2022-09-12T09:37:35;29.10;77.00
38550;DHT22;24322;52.004;5.948;2022-09-12T09:43:16;29.30;74.20
38550;DHT22;24322;52.004;5.948;2022-09-12T09:45:44;29.30;73.70
38550;DHT22;24322;52.004;5.948;2022-09-12T09:48:28;29.30;73.50
38550;DHT22;24322;52.004;5.948;2022-09-12T09:50:58;29.10;70.80
38550;DHT22;24322;52.004;5.948;2022-09-12T09:55:56;28.70;74.70
38550;DHT22;24322;52.004;5.948;2022-09-12T09:58:34;28.70;72.60
38550;DHT22;24322;52.004;5.948;2022-09-12T10:01:05;28.60;71.90
38550;DHT22;24322;52.004;5.948;2022-09-12T10:03:33;28.30;71.10
38550;DHT22;24322;52.004;5.948;2022-09-12T10:06:25;28.30;73.50
38550;DHT22;24322;52.004;5.948;2022-09-12T10:12:33;28.60;71.40
38550;DHT22;24322;52.004;5.948;2022-09-12T10:15:00;28.70;72.40
38550;DHT22;24322;52.004;5.948;2022-09-12T10:17:28;28.60;69.30
38550;DHT22;24322;52.004;5.948;2022-09-12T10:19:56;28.60;69.40
38550;DHT22;24322;52.004;5.948;2022-09-12T10:22:27;28.30;69.70
38550;DHT22;24322;52.004;5.948;2022-09-12T10:24:57;28.40;71.60
38550;DHT22;24322;52.004;5.948;2022-09-12T10:27:27;28.30;70.90
38550;DHT22;24322;52.004;5.948;2022-09-12T10:30:17;27.70;70.30
38550;DHT22;24322;52.004;5.948;2022-09-12T10:32:46;27.40;74.10
38550;DHT22;24322;52.004;5.948;2022-09-12T10:35:24;27.00;74.80
38550;DHT22;24322;52.004;5.948;2022-09-12T10:37:57;26.60;75.60
38550;DHT22;24322;52.004;5.948;2022-09-12T10:40:28;26.20;75.30
38550;DHT22;24322;52.004;5.948;2022-09-12T10:42:57;25.90;78.20
38550;DHT22;24322;52.004;5.948;2022-09-12T10:45:34;25.80;79.00
38550;DHT22;24322;52.004;5.948;2022-09-12T10:48:18;25.70;77.50
38550;DHT22;24322;52.004;5.948;2022-09-12T10:50:46;25.60;77.70
38550;DHT22;24322;52.004;5.948;2022-09-12T10:56:06;25.40;77.70
38550;DHT22;24322;52.004;5.948;2022-09-12T11:01:17;25.20;77.30
38550;DHT22;24322;52.004;5.948;2022-09-12T11:06:18;25.50;77.80
38550;DHT22;24322;52.004;5.948;2022-09-12T11:22:57;26.40;74.20
38550;DHT22;24322;52.004;5.948;2022-09-12T11:25:49;26.30;72.60
38550;DHT22;24322;52.004;5.948;2022-09-12T11:33:46;26.10;75.20
38550;DHT22;24322;52.004;5.948;2022-09-12T11:37:23;26.10;74.60
38550;DHT22;24322;52.004;5.948;2022-09-12T11:39:37;26.00;76.00
38550;DHT22;24322;52.004;5.948;2022-09-12T11:42:06;26.10;73.50
38550;DHT22;24322;52.004;5.948;2022-09-12T11:44:38;26.10;73.90
38550;DHT22;24322;52.004;5.948;2022-09-12T11:47:10;26.20;75.30
38550;DHT22;24322;52.004;5.948;2022-09-12T11:49:44;26.20;74.90
38550;DHT22;24322;52.004;5.948;2022-09-12T11:52:19;26.20;72.90
38550;DHT22;24322;52.004;5.948;2022-09-12T11:59:54;26.10;72.80
38550;DHT22;24322;52.004;5.948;2022-09-12T12:02:27;26.20;74.50
38550;DHT22;24322;52.004;5.948;2022-09-12T12:07:45;26.10;72.30
38550;DHT22;24322;52.004;5.948;2022-09-12T12:12:49;26.30;72.90
38550;DHT22;24322;52.004;5.948;2022-09-12T12:15:16;26.30;74.00
38550;DHT22;24322;52.004;5.948;2022-09-12T12:17:42;26.30;70.90
38550;DHT22;24322;52.004;5.948;2022-09-12T12:20:15;26.20;72.70
38550;DHT22;24322;52.004;5.948;2022-09-12T12:22:52;26.30;73.30
38550;DHT22;24322;52.004;5.948;2022-09-12T12:27:49;26.20;71.40
38550;DHT22;24322;52.004;5.948;2022-09-12T12:38:00;26.50;70.50
38550;DHT22;24322;52.004;5.948;2022-09-12T12:40:28;26.50;68.90
38550;DHT22;24322;52.004;5.948;2022-09-12T12:43:02;26.80;70.40
38550;DHT22;24322;52.004;5.948;2022-09-12T12:47:59;26.70;67.90
38550;DHT22;24322;52.004;5.948;2022-09-12T12:50:27;26.80;69.10
38550;DHT22;24322;52.004;5.948;2022-09-12T12:55:29;26.90;69.60
38550;DHT22;24322;52.004;5.948;2022-09-12T12:57:59;27.10;67.10
38550;DHT22;24322;52.004;5.948;2022-09-12T13:03:03;27.40;67.50
38550;DHT22;24322;52.004;5.948;2022-09-12T13:08:10;27.50;65.60
38550;DHT22;24322;52.004;5.948;2022-09-12T13:10:36;27.40;67.10
38550;DHT22;24322;52.004;5.948;2022-09-12T13:13:05;27.60;65.40
38550;DHT22;24322;52.004;5.948;2022-09-12T13:18:13;27.70;63.80
38550;DHT22;24322;52.004;5.948;2022-09-12T13:20:54;27.70;62.70
38550;DHT22;24322;52.004;5.948;2022-09-12T13:23:24;27.90;62.90
38550;DHT22;24322;52.004;5.948;2022-09-12T13:26:00;27.80;62.20
38550;DHT22;24322;52.004;5.948;2022-09-12T13:28:28;27.70;61.90
38550;DHT22;24322;52.004;5.948;2022-09-12T13:30:55;27.60;63.50
38550;DHT22;24322;52.004;5.948;2022-09-12T13:38:57;27.30;63.30
38550;DHT22;24322;52.004;5.948;2022-09-12T13:44:27;27.20;64.30
38550;DHT22;24322;52.004;5.948;2022-09-12T13:46:59;27.00;63.40
38550;DHT22;24322;52.004;5.948;2022-09-12T13:49:36;27.10;63.50
38550;DHT22;24322;52.004;5.948;2022-09-12T13:52:05;27.00;64.60
38550;DHT22;24322;52.004;5.948;2022-09-12T13:54:33;27.00;65.30
38550;DHT22;24322;52.004;5.948;2022-09-12T13:56:59;26.70;63.60
38550;DHT22;24322;52.004;5.948;2022-09-12T13:59:25;26.50;65.20
38550;DHT22;24322;52.004;5.948;2022-09-12T14:01:50;26.40;64.10
38550;DHT22;24322;52.004;5.948;2022-09-12T14:04:24;26.30;65.30
38550;DHT22;24322;52.004;5.948;2022-09-12T14:07:21;26.10;65.90
38550;DHT22;24322;52.004;5.948;2022-09-12T14:09:58;26.00;66.00
38550;DHT22;24322;52.004;5.948;2022-09-12T14:12:30;25.90;66.50
38550;DHT22;24322;52.004;5.948;2022-09-12T14:14:57;25.70;66.90
38550;DHT22;24322;52.004;5.948;2022-09-12T14:17:33;25.60;66.30
38550;DHT22;24322;52.004;5.948;2022-09-12T14:20:21;25.50;66.80
38550;DHT22;24322;52.004;5.948;2022-09-12T14:22:49;25.50;68.10
38550;DHT22;24322;52.004;5.948;2022-09-12T14:25:18;25.50;67.90
38550;DHT22;24322;52.004;5.948;2022-09-12T14:27:46;25.40;68.20
38550;DHT22;24322;52.004;5.948;2022-09-12T14:30:22;25.30;68.70
38550;DHT22;24322;52.004;5.948;2022-09-12T14:35:34;25.40;68.30
38550;DHT22;24322;52.004;5.948;2022-09-12T14:40:47;25.30;68.10
38550;DHT22;24322;52.004;5.948;2022-09-12T14:43:26;25.20;68.20
38550;DHT22;24322;52.004;5.948;2022-09-12T14:46:06;25.10;68.40
38550;DHT22;24322;52.004;5.948;2022-09-12T14:48:35;25.10;68.30
38550;DHT22;24322;52.004;5.948;2022-09-12T14:51:02;25.10;69.70
38550;DHT22;24322;52.004;5.948;2022-09-12T14:53:34;25.00;69.00
38550;DHT22;24322;52.004;5.948;2022-09-12T14:56:11;25.00;68.90
38550;DHT22;24322;52.004;5.948;2022-09-12T14:58:38;25.00;68.70
38550;DHT22;24322;52.004;5.948;2022-09-12T15:03:34;24.90;69.20
38550;DHT22;24322;52.004;5.948;2022-09-12T15:06:01;24.80;68.50
38550;DHT22;24322;52.004;5.948;2022-09-12T15:08:28;24.80;69.20
38550;DHT22;24322;52.004;5.948;2022-09-12T15:10:54;24.80;70.10
38550;DHT22;24322;52.004;5.948;2022-09-12T15:13:22;24.80;70.10
38550;DHT22;24322;52.004;5.948;2022-09-12T15:15:56;24.80;69.80
38550;DHT22;24322;52.004;5.948;2022-09-12T15:18:24;24.80;70.90
38550;DHT22;24322;52.004;5.948;2022-09-12T15:20:55;24.80;70.80
38550;DHT22;24322;52.004;5.948;2022-09-12T15:23:35;24.80;70.50
38550;DHT22;24322;52.004;5.948;2022-09-12T15:26:03;24.80;71.50
38550;DHT22;24322;52.004;5.948;2022-09-12T15:28:29;24.80;71.80
38550;DHT22;24322;52.004;5.948;2022-09-12T15:30:56;24.70;71.80
38550;DHT22;24322;52.004;5.948;2022-09-12T15:33:23;24.60;70.80
38550;DHT22;24322;52.004;5.948;2022-09-12T15:35:50;24.50;71.10
38550;DHT22;24322;52.004;5.948;2022-09-12T15:38:17;24.50;70.40
38550;DHT22;24322;52.004;5.948;2022-09-12T15:40:43;24.40;71.50
38550;DHT22;24322;52.004;5.948;2022-09-12T15:43:12;24.30;70.90
38550;DHT22;24322;52.004;5.948;2022-09-12T15:45:38;24.20;71.50
38550;DHT22;24322;52.004;5.948;2022-09-12T15:48:05;24.10;72.50
38550;DHT22;24322;52.004;5.948;2022-09-12T15:50:31;24.10;73.30
38550;DHT22;24322;52.004;5.948;2022-09-12T15:52:57;24.10;72.50
38550;DHT22;24322;52.004;5.948;2022-09-12T15:55:27;24.10;73.10
38550;DHT22;24322;52.004;5.948;2022-09-12T15:57:53;24.10;73.00
38550;DHT22;24322;52.004;5.948;2022-09-12T16:00:20;24.00;74.00
38550;DHT22;24322;52.004;5.948;2022-09-12T16:02:48;24.10;73.50
38550;DHT22;24322;52.004;5.948;2022-09-12T16:05:16;24.10;73.80
38550;DHT22;24322;52.004;5.948;2022-09-12T16:07:43;24.00;75.10
38550;DHT22;24322;52.004;5.948;2022-09-12T16:10:18;24.00;75.10
38550;DHT22;24322;52.004;5.948;2022-09-12T16:12:44;24.00;75.60
38550;DHT22;24322;52.004;5.948;2022-09-12T16:15:19;23.90;75.20
38550;DHT22;24322;52.004;5.948;2022-09-12T16:17:46;23.90;75.40
38550;DHT22;24322;52.004;5.948;2022-09-12T16:20:13;23.90;75.20
38550;DHT22;24322;52.004;5.948;2022-09-12T16:22:38;23.80;73.90
38550;DHT22;24322;52.004;5.948;2022-09-12T16:25:05;23.80;73.90
38550;DHT22;24322;52.004;5.948;2022-09-12T16:27:31;23.80;74.90
38550;DHT22;24322;52.004;5.948;2022-09-12T16:29:57;23.80;75.30
38550;DHT22;24322;52.004;5.948;2022-09-12T16:32:22;23.70;75.40
38550;DHT22;24322;52.004;5.948;2022-09-12T16:34:48;23.70;75.00
38550;DHT22;24322;52.004;5.948;2022-09-12T16:37:15;23.60;76.50
38550;DHT22;24322;52.004;5.948;2022-09-12T16:39:41;23.60;77.80
38550;DHT22;24322;52.004;5.948;2022-09-12T16:42:06;23.60;77.90
38550;DHT22;24322;52.004;5.948;2022-09-12T16:44:32;23.60;78.70
38550;DHT22;24322;52.004;5.948;2022-09-12T16:46:58;23.50;78.90
38550;DHT22;24322;52.004;5.948;2022-09-12T16:49:23;23.50;78.70
38550;DHT22;24322;52.004;5.948;2022-09-12T16:51:49;23.50;78.90
38550;DHT22;24322;52.004;5.948;2022-09-12T16:54:15;23.40;79.60
38550;DHT22;24322;52.004;5.948;2022-09-12T16:56:42;23.30;79.00
38550;DHT22;24322;52.004;5.948;2022-09-12T16:59:08;23.20;80.30
38550;DHT22;24322;52.004;5.948;2022-09-12T17:01:37;23.10;79.60
38550;DHT22;24322;52.004;5.948;2022-09-12T17:04:03;23.10;80.30
38550;DHT22;24322;52.004;5.948;2022-09-12T17:06:29;23.00;81.00
38550;DHT22;24322;52.004;5.948;2022-09-12T17:08:58;23.00;81.50
38550;DHT22;24322;52.004;5.948;2022-09-12T17:11:31;22.90;82.10
38550;DHT22;24322;52.004;5.948;2022-09-12T17:13:58;22.80;83.80
38550;DHT22;24322;52.004;5.948;2022-09-12T17:16:25;22.70;84.40
38550;DHT22;24322;52.004;5.948;2022-09-12T17:18:52;22.60;85.70
38550;DHT22;24322;52.004;5.948;2022-09-12T17:21:18;22.50;86.20
38550;DHT22;24322;52.004;5.948;2022-09-12T17:23:44;22.40;86.50
38550;DHT22;24322;52.004;5.948;2022-09-12T17:26:10;22.30;87.10
38550;DHT22;24322;52.004;5.948;2022-09-12T17:28:37;22.30;88.00
38550;DHT22;24322;52.004;5.948;2022-09-12T17:31:06;22.20;89.70
38550;DHT22;24322;52.004;5.948;2022-09-12T17:33:32;22.10;90.40
38550;DHT22;24322;52.004;5.948;2022-09-12T17:36:03;22.00;90.90
38550;DHT22;24322;52.004;5.948;2022-09-12T17:38:33;21.90;91.70
38550;DHT22;24322;52.004;5.948;2022-09-12T17:41:04;21.90;92.00
38550;DHT22;24322;52.004;5.948;2022-09-12T17:43:30;21.80;92.40
38550;DHT22;24322;52.004;5.948;2022-09-12T17:45:56;21.70;92.70
38550;DHT22;24322;52.004;5.948;2022-09-12T17:48:21;21.60;93.10
38550;DHT22;24322;52.004;5.948;2022-09-12T17:50:47;21.60;93.80
38550;DHT22;24322;52.004;5.948;2022-09-12T17:53:14;21.50;94.10
38550;DHT22;24322;52.004;5.948;2022-09-12T17:55:39;21.40;94.40
38550;DHT22;24322;52.004;5.948;2022-09-12T17:58:06;21.40;95.10
38550;DHT22;24322;52.004;5.948;2022-09-12T18:00:33;21.20;95.10
38550;DHT22;24322;52.004;5.948;2022-09-12T18:03:21;21.20;95.50
38550;DHT22;24322;52.004;5.948;2022-09-12T18:05:50;21.10;96.00